createdAt,value
2018-12-20T00:00:13.851Z,11.50
2018-12-20T00:01:13.903Z,13.70
2018-12-20T00:02:13.820Z,14.90
2018-12-20T00:03:13.941Z,12.30
2018-12-20T00:04:13.866Z,12.80
2018-12-20T00:05:13.836Z,12.00
2018-12-20T00:06:13.777Z,13.10
2018-12-20T00:07:13.767Z,13.00
2018-12-20T00:08:13.779Z,12.80
2018-12-20T00:09:13.829Z,12.70
2018-12-20T00:10:13.831Z,14.10
2018-12-20T00:11:13.818Z,12.70
2018-12-20T00:12:13.716Z,13.00
2018-12-20T00:13:13.755Z,12.30
2018-12-20T00:14:13.829Z,13.60
2018-12-20T00:15:13.835Z,13.90
2018-12-20T00:16:13.671Z,13.00
2018-12-20T00:17:13.661Z,13.70
2018-12-20T00:18:13.657Z,13.50
2018-12-20T00:19:13.677Z,13.20
2018-12-20T00:20:13.627Z,13.20
2018-12-20T00:21:13.651Z,13.90
2018-12-20T00:22:13.609Z,12.90
2018-12-20T00:23:13.602Z,13.00
2018-12-20T00:24:13.850Z,12.40
2018-12-20T00:25:13.589Z,14.00
2018-12-20T00:26:13.595Z,14.00
2018-12-20T00:27:13.661Z,14.00
2018-12-20T00:28:13.576Z,13.80
2018-12-20T00:29:13.531Z,13.10
2018-12-20T00:30:13.606Z,13.40
2018-12-20T00:31:13.775Z,13.20
2018-12-20T00:32:13.500Z,13.00
2018-12-20T00:33:13.489Z,13.60
2018-12-20T00:34:13.678Z,12.20
2018-12-20T00:35:13.469Z,12.60
2018-12-20T00:36:13.456Z,12.60
2018-12-20T00:37:13.442Z,14.50
2018-12-20T00:38:13.500Z,13.60
2018-12-20T00:39:13.537Z,12.40
2018-12-20T00:40:13.516Z,12.70
2018-12-20T00:41:13.439Z,13.50
2018-12-20T00:42:13.392Z,12.90
2018-12-20T00:43:13.508Z,13.00
2018-12-20T00:44:13.373Z,13.10
2018-12-20T00:45:13.417Z,13.10
2018-12-20T00:46:13.364Z,13.20
2018-12-20T00:47:13.411Z,14.30
2018-12-20T00:48:13.357Z,13.70
2018-12-20T00:49:13.405Z,13.40
2018-12-20T00:50:13.408Z,13.80
2018-12-20T00:51:13.338Z,13.90
2018-12-20T00:52:13.425Z,14.80
2018-12-20T00:53:13.270Z,14.30
2018-12-20T00:54:13.345Z,13.80
2018-12-20T00:55:13.255Z,14.40
2018-12-20T00:56:13.255Z,15.50
2018-12-20T00:57:13.225Z,13.50
2018-12-20T00:58:13.214Z,16.10
2018-12-20T00:59:13.267Z,12.20
2018-12-20T01:00:13.278Z,14.00
2018-12-20T01:01:13.292Z,14.40
2018-12-20T01:02:13.206Z,13.20
2018-12-20T01:03:13.179Z,14.70
2018-12-20T01:04:13.151Z,14.50
2018-12-20T01:05:13.219Z,14.10
2018-12-20T01:06:13.269Z,14.60
2018-12-20T01:07:13.159Z,14.20
2018-12-20T01:08:13.251Z,13.20
2018-12-20T01:09:13.208Z,14.30
2018-12-20T01:10:13.081Z,13.80
2018-12-20T01:11:13.091Z,13.20
2018-12-20T01:12:13.185Z,12.90
2018-12-20T01:13:13.053Z,12.90
2018-12-20T01:14:13.243Z,13.40
2018-12-20T01:15:13.164Z,13.30
2018-12-20T01:16:13.146Z,13.00
2018-12-20T01:17:13.102Z,12.30
2018-12-20T01:18:13.143Z,12.90
2018-12-20T01:19:13.010Z,13.00
2018-12-20T01:20:13.005Z,13.30
2018-12-20T01:21:13.020Z,13.50
2018-12-20T01:22:12.975Z,14.40
2018-12-20T01:23:12.957Z,14.40
2018-12-20T01:24:12.932Z,15.10
2018-12-20T01:25:12.924Z,13.40
2018-12-20T01:26:12.959Z,12.70
2018-12-20T01:27:12.964Z,13.10
2018-12-20T01:28:12.996Z,13.50
2018-12-20T01:29:12.924Z,15.00
2018-12-20T01:30:12.886Z,13.70
2018-12-20T01:31:12.987Z,12.40
2018-12-20T01:32:12.905Z,13.50
2018-12-20T01:33:12.980Z,13.10
2018-12-20T01:34:12.859Z,12.10
2018-12-20T01:35:12.820Z,16.00
2018-12-20T01:36:12.999Z,11.90
2018-12-20T01:37:12.829Z,12.10
2018-12-20T01:38:12.801Z,12.50
2018-12-20T01:39:12.912Z,12.10
2018-12-20T01:40:12.857Z,12.50
2018-12-20T01:41:12.755Z,15.70
2018-12-20T01:42:12.743Z,11.90
2018-12-20T01:43:12.853Z,11.50
2018-12-20T01:44:12.904Z,11.80
2018-12-20T01:45:12.808Z,11.80
2018-12-20T01:46:12.699Z,12.00
2018-12-20T01:47:12.767Z,11.20
2018-12-20T01:48:12.805Z,12.30
2018-12-20T01:49:12.659Z,11.50
2018-12-20T01:50:12.697Z,11.60
2018-12-20T01:51:12.728Z,11.90
2018-12-20T01:52:12.654Z,13.00
2018-12-20T01:53:12.737Z,13.30
2018-12-20T01:54:12.771Z,13.90
2018-12-20T01:55:12.778Z,12.30
2018-12-20T01:56:12.633Z,13.00
2018-12-20T01:57:12.668Z,12.30
2018-12-20T01:58:12.566Z,12.50
2018-12-20T01:59:12.602Z,12.10
2018-12-20T02:00:12.564Z,13.50
2018-12-20T02:01:12.649Z,13.20
2018-12-20T02:02:12.537Z,13.40
2018-12-20T02:03:12.548Z,13.40
2018-12-20T02:04:12.496Z,12.00
2018-12-20T02:05:12.713Z,14.50
2018-12-20T02:06:12.479Z,13.10
2018-12-20T02:07:12.493Z,12.20
2018-12-20T02:08:12.479Z,12.10
2018-12-20T02:09:12.628Z,15.00
2018-12-20T02:10:12.605Z,14.50
2018-12-20T02:11:12.425Z,12.50
2018-12-20T02:12:12.443Z,12.30
2018-12-20T02:13:12.523Z,13.00
2018-12-20T02:14:12.539Z,13.30
2018-12-20T02:15:12.386Z,13.60
2018-12-20T02:16:12.367Z,13.30
2018-12-20T02:17:12.358Z,12.50
2018-12-20T02:18:12.348Z,13.60
2018-12-20T02:19:12.358Z,12.40
2018-12-20T02:20:12.366Z,13.40
2018-12-20T02:21:12.353Z,13.20
2018-12-20T02:22:12.321Z,11.30
2018-12-20T02:23:12.443Z,11.40
2018-12-20T02:24:12.325Z,12.80
2018-12-20T02:25:12.270Z,11.80
2018-12-20T02:26:12.277Z,12.00
2018-12-20T02:27:12.293Z,11.70
2018-12-20T02:28:12.394Z,12.00
2018-12-20T02:29:12.322Z,13.90
2018-12-20T02:30:12.392Z,12.30
2018-12-20T02:31:12.253Z,12.80
2018-12-20T02:32:12.542Z,10.90
2018-12-20T02:33:12.183Z,12.80
2018-12-20T02:34:12.491Z,12.50
2018-12-20T02:35:12.267Z,12.60
2018-12-20T02:36:12.338Z,11.20
2018-12-20T02:37:12.144Z,12.90
2018-12-20T02:38:12.204Z,13.20
2018-12-20T02:39:12.359Z,12.80
2018-12-20T02:40:12.239Z,13.50
2018-12-20T02:41:12.118Z,11.30
2018-12-20T02:42:12.124Z,11.80
2018-12-20T02:43:12.076Z,11.20
2018-12-20T02:44:12.150Z,14.80
2018-12-20T02:45:12.078Z,14.20
2018-12-20T02:46:12.037Z,13.20
2018-12-20T02:47:12.142Z,14.30
2018-12-20T02:48:12.116Z,12.50
2018-12-20T02:49:12.139Z,12.20
2018-12-20T02:50:12.285Z,11.50
2018-12-20T02:51:12.040Z,10.50
2018-12-20T02:52:12.025Z,10.40
2018-12-20T02:53:12.151Z,10.80
2018-12-20T02:54:12.097Z,12.00
2018-12-20T02:55:11.944Z,13.30
2018-12-20T02:56:11.932Z,14.70
2018-12-20T02:57:11.928Z,11.70
2018-12-20T02:58:11.916Z,15.90
2018-12-20T02:59:11.936Z,16.00
2018-12-20T03:00:12.062Z,13.40
2018-12-20T03:01:11.902Z,14.40
2018-12-20T03:02:12.066Z,16.70
2018-12-20T03:03:11.974Z,14.90
2018-12-20T03:04:11.986Z,15.60
2018-12-20T03:05:11.948Z,15.10
2018-12-20T03:06:11.961Z,15.50
2018-12-20T03:07:12.146Z,15.10
2018-12-20T03:08:11.987Z,15.20
2018-12-20T03:09:11.796Z,15.00
2018-12-20T03:10:11.881Z,15.90
2018-12-20T03:11:11.944Z,14.00
2018-12-20T03:12:11.897Z,13.50
2018-12-20T03:13:11.864Z,15.00
2018-12-20T03:14:11.751Z,17.20
2018-12-20T03:15:19.726Z,13.20
2018-12-20T03:16:12.714Z,17.60
2018-12-20T03:17:11.850Z,15.50
2018-12-20T03:18:11.715Z,13.50
2018-12-20T03:19:11.723Z,14.90
2018-12-20T03:20:11.813Z,14.10
2018-12-20T03:21:11.716Z,14.10
2018-12-20T03:22:11.676Z,15.80
2018-12-20T03:23:11.671Z,14.90
2018-12-20T03:24:11.641Z,15.20
2018-12-20T03:25:11.669Z,13.10
2018-12-20T03:26:11.621Z,14.50
2018-12-20T03:27:11.602Z,15.40
2018-12-20T03:28:11.700Z,13.60
2018-12-20T03:29:11.624Z,14.60
2018-12-20T03:30:11.565Z,14.50
2018-12-20T03:31:11.746Z,17.10
2018-12-20T03:32:12.082Z,16.50
2018-12-20T03:33:12.295Z,16.60
2018-12-20T03:34:11.518Z,14.20
2018-12-20T03:35:11.751Z,13.80
2018-12-20T03:36:11.573Z,14.90
2018-12-20T03:37:11.489Z,13.70
2018-12-20T03:38:11.509Z,15.50
2018-12-20T03:39:11.618Z,14.20
2018-12-20T03:40:11.628Z,15.10
2018-12-20T03:41:11.567Z,15.10
2018-12-20T03:42:11.602Z,13.90
2018-12-20T03:43:11.420Z,15.70
2018-12-20T03:44:11.407Z,15.10
2018-12-20T03:45:13.122Z,13.10
2018-12-20T03:46:11.434Z,16.50
2018-12-20T03:47:11.394Z,15.00
2018-12-20T03:48:11.400Z,15.00
2018-12-20T03:49:11.476Z,13.80
2018-12-20T03:50:11.402Z,16.40
2018-12-20T03:51:11.523Z,14.80
2018-12-20T03:52:11.327Z,12.90
2018-12-20T03:53:11.326Z,11.10
2018-12-20T03:54:11.298Z,14.20
2018-12-20T03:55:11.344Z,14.50
2018-12-20T03:56:11.343Z,14.80
2018-12-20T03:57:11.445Z,14.00
2018-12-20T03:58:11.379Z,13.50
2018-12-20T03:59:11.248Z,14.80
2018-12-20T04:00:11.537Z,12.20
2018-12-20T04:01:11.244Z,14.70
2018-12-20T04:02:11.362Z,13.10
2018-12-20T04:03:11.205Z,13.20
2018-12-20T04:04:11.380Z,15.60
2018-12-20T04:05:11.177Z,12.80
2018-12-20T04:06:11.186Z,12.60
2018-12-20T04:07:11.268Z,13.10
2018-12-20T04:08:11.263Z,14.10
2018-12-20T04:09:11.153Z,12.10
2018-12-20T04:10:11.134Z,12.50
2018-12-20T04:11:11.157Z,12.80
2018-12-20T04:12:11.109Z,14.00
2018-12-20T04:13:11.160Z,13.80
2018-12-20T04:14:11.158Z,17.10
2018-12-20T04:15:11.127Z,13.70
2018-12-20T04:16:11.452Z,15.30
2018-12-20T04:17:11.351Z,12.90
2018-12-20T04:18:11.081Z,16.20
2018-12-20T04:19:11.075Z,15.20
2018-12-20T04:20:11.310Z,13.70
2018-12-20T04:21:11.021Z,14.50
2018-12-20T04:22:11.055Z,14.10
2018-12-20T04:23:10.986Z,13.70
2018-12-20T04:24:11.332Z,13.80
2018-12-20T04:25:10.961Z,16.10
2018-12-20T04:26:10.992Z,15.00
2018-12-20T04:27:10.980Z,15.40
2018-12-20T04:28:11.006Z,14.20
2018-12-20T04:29:10.923Z,12.90
2018-12-20T04:30:11.030Z,14.50
2018-12-20T04:31:10.905Z,14.80
2018-12-20T04:32:10.934Z,13.20
2018-12-20T04:33:10.917Z,15.60
2018-12-20T04:34:10.899Z,13.60
2018-12-20T04:35:10.880Z,16.30
2018-12-20T04:36:10.928Z,14.00
2018-12-20T04:37:10.834Z,14.60
2018-12-20T04:38:10.826Z,13.10
2018-12-20T04:39:10.865Z,13.70
2018-12-20T04:40:10.879Z,15.00
2018-12-20T04:41:10.837Z,15.00
2018-12-20T04:42:10.778Z,12.60
2018-12-20T04:43:11.050Z,14.40
2018-12-20T04:44:10.942Z,13.70
2018-12-20T04:45:10.901Z,13.60
2018-12-20T04:46:10.817Z,13.30
2018-12-20T04:47:10.722Z,11.80
2018-12-20T04:48:10.710Z,12.30
2018-12-20T04:49:10.707Z,13.10
2018-12-20T04:50:10.916Z,15.20
2018-12-20T04:51:10.775Z,13.00
2018-12-20T04:52:10.667Z,13.30
2018-12-20T04:53:10.661Z,13.50
2018-12-20T04:54:10.916Z,13.20
2018-12-20T04:55:10.761Z,13.90
2018-12-20T04:56:10.630Z,13.90
2018-12-20T04:57:10.632Z,15.20
2018-12-20T04:58:10.634Z,13.00
2018-12-20T04:59:10.774Z,12.00
2018-12-20T05:00:10.602Z,12.00
2018-12-20T05:01:10.940Z,13.90
2018-12-20T05:02:10.883Z,12.70
2018-12-20T05:03:10.610Z,12.70
2018-12-20T05:04:10.544Z,12.50
2018-12-20T05:05:10.829Z,12.20
2018-12-20T05:06:10.625Z,13.00
2018-12-20T05:07:10.601Z,11.60
2018-12-20T05:08:10.871Z,11.40
2018-12-20T05:09:10.622Z,12.70
2018-12-20T05:10:10.512Z,12.00
2018-12-20T05:11:10.675Z,11.10
2018-12-20T05:12:10.510Z,12.10
2018-12-20T05:13:10.597Z,11.60
2018-12-20T05:14:10.533Z,11.90
2018-12-20T05:15:10.611Z,12.00
2018-12-20T05:16:10.436Z,12.60
2018-12-20T05:17:10.394Z,10.40
2018-12-20T05:18:10.388Z,11.60
2018-12-20T05:19:10.498Z,12.30
2018-12-20T05:20:10.446Z,11.20
2018-12-20T05:21:10.579Z,10.70
2018-12-20T05:22:10.466Z,11.40
2018-12-20T05:23:10.423Z,10.30
2018-12-20T05:24:10.381Z,11.30
2018-12-20T05:25:10.334Z,13.10
2018-12-20T05:26:10.508Z,11.60
2018-12-20T05:27:10.537Z,11.50
2018-12-20T05:28:10.302Z,11.00
2018-12-20T05:29:10.295Z,11.30
2018-12-20T05:30:10.282Z,10.80
2018-12-20T05:31:10.245Z,11.80
2018-12-20T05:32:10.487Z,10.20
2018-12-20T05:33:10.234Z,11.00
2018-12-20T05:34:10.221Z,11.60
2018-12-20T05:35:10.210Z,9.80
2018-12-20T05:36:10.336Z,12.50
2018-12-20T05:37:10.222Z,9.30
2018-12-20T05:38:10.180Z,10.30
2018-12-20T05:39:10.288Z,10.10
2018-12-20T05:40:10.286Z,12.00
2018-12-20T05:41:10.220Z,10.80
2018-12-20T05:42:10.380Z,11.40
2018-12-20T05:43:10.116Z,9.40
2018-12-20T05:44:10.390Z,10.40
2018-12-20T05:45:10.101Z,9.00
2018-12-20T05:46:10.128Z,10.90
2018-12-20T05:47:10.294Z,9.40
2018-12-20T05:48:10.143Z,10.80
2018-12-20T05:49:10.061Z,8.90
2018-12-20T05:50:10.244Z,10.30
2018-12-20T05:51:10.029Z,11.60
2018-12-20T05:52:10.015Z,10.20
2018-12-20T05:53:10.011Z,9.90
2018-12-20T05:54:10.064Z,9.40
2018-12-20T05:55:10.035Z,8.80
2018-12-20T05:56:09.972Z,9.30
2018-12-20T05:57:09.991Z,10.10
2018-12-20T05:58:10.259Z,9.70
2018-12-20T05:59:09.999Z,9.70
2018-12-20T06:00:09.934Z,9.20
2018-12-20T06:01:10.143Z,12.60
2018-12-20T06:02:09.914Z,10.60
2018-12-20T06:03:09.936Z,12.40
2018-12-20T06:04:11.569Z,10.40
2018-12-20T06:05:09.907Z,11.50
2018-12-20T06:06:09.996Z,14.60
2018-12-20T06:07:09.880Z,12.40
2018-12-20T06:08:09.847Z,9.60
2018-12-20T06:09:09.874Z,12.60
2018-12-20T06:10:09.928Z,14.10
2018-12-20T06:11:10.008Z,10.20
2018-12-20T06:12:09.870Z,12.50
2018-12-20T06:13:09.930Z,14.60
2018-12-20T06:14:09.824Z,12.20
2018-12-20T06:15:09.819Z,12.30
2018-12-20T06:16:13.063Z,13.80
2018-12-20T06:17:09.894Z,12.40
2018-12-20T06:18:09.777Z,10.30
2018-12-20T06:19:09.839Z,11.90
2018-12-20T06:20:09.792Z,11.20
2018-12-20T06:21:09.891Z,13.20
2018-12-20T06:22:09.797Z,11.50
2018-12-20T06:23:09.680Z,11.50
2018-12-20T06:24:09.698Z,13.00
2018-12-20T06:25:09.661Z,10.60
2018-12-20T06:26:09.650Z,11.50
2018-12-20T06:27:09.655Z,13.40
2018-12-20T06:28:09.665Z,16.20
2018-12-20T06:29:09.620Z,14.40
2018-12-20T06:30:09.605Z,14.80
2018-12-20T06:31:09.598Z,14.40
2018-12-20T06:32:09.586Z,19.10
2018-12-20T06:33:09.568Z,15.10
2018-12-20T06:34:09.582Z,13.00
2018-12-20T06:35:09.584Z,9.50
2018-12-20T06:36:09.584Z,9.30
2018-12-20T06:37:09.533Z,10.70
2018-12-20T06:38:09.543Z,10.80
2018-12-20T06:39:09.509Z,10.70
2018-12-20T06:40:09.500Z,10.40
2018-12-20T06:41:09.488Z,13.20
2018-12-20T06:42:09.500Z,13.30
2018-12-20T06:43:09.517Z,12.80
2018-12-20T06:44:09.510Z,15.40
2018-12-20T06:45:09.460Z,18.30
2018-12-20T06:46:09.533Z,17.70
2018-12-20T06:47:09.419Z,16.60
2018-12-20T06:48:09.408Z,16.50
2018-12-20T06:49:10.318Z,17.80
2018-12-20T06:50:09.424Z,15.50
2018-12-20T06:51:09.397Z,15.10
2018-12-20T06:52:09.372Z,13.70
2018-12-20T06:53:09.374Z,14.30
2018-12-20T06:54:09.346Z,15.80
2018-12-20T06:55:09.333Z,16.10
2018-12-20T06:56:09.352Z,16.50
2018-12-20T06:57:09.318Z,16.80
2018-12-20T06:58:09.303Z,14.40
2018-12-20T06:59:09.300Z,17.70
2018-12-20T07:00:09.279Z,15.20
2018-12-20T07:01:09.274Z,16.40
2018-12-20T07:02:09.284Z,16.30
2018-12-20T07:03:09.249Z,14.60
2018-12-20T07:04:09.248Z,15.90
2018-12-20T07:05:09.222Z,15.70
2018-12-20T07:06:09.213Z,17.20
2018-12-20T07:07:09.204Z,15.30
2018-12-20T07:08:09.212Z,14.70
2018-12-20T07:09:09.185Z,16.70
2018-12-20T07:10:09.189Z,17.80
2018-12-20T07:11:09.161Z,16.70
2018-12-20T07:12:09.158Z,18.90
2018-12-20T07:13:09.154Z,13.20
2018-12-20T07:14:09.149Z,15.50
2018-12-20T07:15:09.121Z,15.80
2018-12-20T07:16:09.121Z,15.80
2018-12-20T07:17:09.093Z,16.40
2018-12-20T07:18:09.087Z,16.20
2018-12-20T07:19:09.097Z,15.70
2018-12-20T07:20:09.060Z,16.00
2018-12-20T07:21:09.060Z,19.60
2018-12-20T07:22:09.043Z,14.50
2018-12-20T07:23:09.042Z,16.70
2018-12-20T07:24:09.025Z,17.20
2018-12-20T07:25:09.026Z,16.10
2018-12-20T07:26:08.997Z,16.30
2018-12-20T07:27:08.987Z,15.60
2018-12-20T07:28:08.973Z,16.60
2018-12-20T07:29:08.971Z,14.90
2018-12-20T07:30:08.989Z,15.90
2018-12-20T07:31:08.944Z,14.10
2018-12-20T07:32:08.944Z,15.00
2018-12-20T07:33:08.939Z,15.70
2018-12-20T07:34:08.953Z,14.70
2018-12-20T07:35:08.905Z,15.80
2018-12-20T07:36:08.920Z,14.00
2018-12-20T07:37:08.963Z,18.20
2018-12-20T07:38:08.921Z,16.10
2018-12-20T07:39:08.854Z,17.10
2018-12-20T07:40:08.845Z,20.20
2018-12-20T07:41:08.884Z,15.90
2018-12-20T07:42:08.856Z,14.70
2018-12-20T07:43:08.818Z,19.20
2018-12-20T07:44:08.812Z,17.00
2018-12-20T07:45:08.793Z,15.70
2018-12-20T07:46:08.840Z,16.10
2018-12-20T07:47:08.776Z,21.40
2018-12-20T07:48:08.769Z,19.60
2018-12-20T07:49:08.750Z,15.90
2018-12-20T07:50:08.737Z,17.50
2018-12-20T07:51:08.751Z,17.40
2018-12-20T07:52:08.736Z,19.40
2018-12-20T07:53:08.715Z,18.00
2018-12-20T07:54:08.792Z,19.70
2018-12-20T07:55:08.690Z,21.40
2018-12-20T07:56:08.675Z,18.10
2018-12-20T07:57:08.684Z,16.50
2018-12-20T07:58:08.649Z,16.70
2018-12-20T07:59:08.639Z,19.40
2018-12-20T08:00:08.630Z,15.20
2018-12-20T08:01:08.625Z,16.30
2018-12-20T08:02:08.613Z,16.00
2018-12-20T08:03:08.612Z,17.90
2018-12-20T08:04:08.599Z,18.00
2018-12-20T08:05:08.583Z,16.20
2018-12-20T08:06:08.573Z,16.00
2018-12-20T08:07:08.567Z,13.80
2018-12-20T08:08:08.575Z,15.20
2018-12-20T08:09:08.532Z,12.60
2018-12-20T08:10:08.546Z,14.30
2018-12-20T08:11:08.551Z,12.40
2018-12-20T08:12:08.499Z,12.80
2018-12-20T08:13:08.493Z,13.00
2018-12-20T08:14:08.494Z,11.10
2018-12-20T08:15:08.477Z,12.80
2018-12-20T08:16:09.268Z,12.20
2018-12-20T08:17:08.466Z,11.70
2018-12-20T08:18:08.432Z,10.10
2018-12-20T08:19:08.428Z,10.70
2018-12-20T08:20:08.421Z,10.10
2018-12-20T08:21:08.408Z,9.90
2018-12-20T08:22:08.407Z,8.10
2018-12-20T08:23:08.378Z,8.30
2018-12-20T08:24:08.401Z,9.10
2018-12-20T08:25:08.361Z,9.80
2018-12-20T08:26:08.358Z,7.60
2018-12-20T08:27:08.344Z,7.00
2018-12-20T08:28:08.329Z,7.70
2018-12-20T08:29:08.382Z,9.30
2018-12-20T08:30:08.321Z,6.90
2018-12-20T08:31:08.294Z,6.60
2018-12-20T08:32:08.283Z,6.60
2018-12-20T08:33:08.315Z,6.70
2018-12-20T08:34:08.291Z,4.90
2018-12-20T08:35:08.257Z,6.50
2018-12-20T08:36:08.251Z,7.70
2018-12-20T08:37:08.231Z,7.40
2018-12-20T08:38:08.222Z,6.40
2018-12-20T08:39:08.249Z,5.40
2018-12-20T08:40:08.218Z,6.30
2018-12-20T08:41:09.164Z,7.80
2018-12-20T08:42:08.172Z,5.00
2018-12-20T08:43:08.162Z,6.80
2018-12-20T08:44:08.180Z,7.00
2018-12-20T08:45:08.146Z,5.90
2018-12-20T08:46:08.144Z,5.80
2018-12-20T08:47:08.124Z,6.90
2018-12-20T08:48:08.112Z,8.80
2018-12-20T08:49:08.099Z,6.80
2018-12-20T08:50:08.111Z,6.40
2018-12-20T08:51:08.081Z,5.90
2018-12-20T08:52:08.068Z,7.30
2018-12-20T08:53:08.055Z,8.60
2018-12-20T08:54:08.045Z,7.30
2018-12-20T08:55:08.031Z,6.50
2018-12-20T08:56:08.047Z,6.50
2018-12-20T08:57:08.019Z,7.50
2018-12-20T08:58:08.040Z,5.90
2018-12-20T08:59:07.999Z,7.00
2018-12-20T09:00:08.015Z,7.00
2018-12-20T09:01:08.047Z,8.70
2018-12-20T09:02:07.982Z,6.40
2018-12-20T09:03:07.949Z,7.40
2018-12-20T09:04:07.945Z,6.50
2018-12-20T09:05:07.936Z,7.40
2018-12-20T09:06:07.923Z,6.10
2018-12-20T09:07:07.903Z,6.00
2018-12-20T09:08:07.939Z,6.60
2018-12-20T09:09:07.908Z,8.10
2018-12-20T09:10:07.875Z,7.20
2018-12-20T09:11:07.864Z,6.90
2018-12-20T09:12:07.853Z,8.20
2018-12-20T09:13:09.649Z,6.50
2018-12-20T09:14:07.828Z,5.60
2018-12-20T09:15:07.879Z,7.50
2018-12-20T09:16:07.808Z,6.60
2018-12-20T09:17:07.821Z,6.70
2018-12-20T09:18:07.797Z,5.90
2018-12-20T09:19:07.777Z,4.90
2018-12-20T09:20:07.785Z,6.70
2018-12-20T09:21:07.777Z,5.50
2018-12-20T09:22:07.737Z,5.40
2018-12-20T09:23:07.739Z,4.80
2018-12-20T09:24:07.722Z,5.20
2018-12-20T09:25:07.724Z,7.20
2018-12-20T09:26:07.695Z,6.60
2018-12-20T09:27:07.706Z,5.60
2018-12-20T09:28:07.675Z,5.80
2018-12-20T09:29:07.667Z,3.90
2018-12-20T09:30:07.657Z,8.00
2018-12-20T09:31:07.651Z,5.20
2018-12-20T09:32:07.651Z,4.20
2018-12-20T09:33:07.688Z,5.50
2018-12-20T09:34:07.640Z,3.70
2018-12-20T09:35:07.603Z,4.10
2018-12-20T09:36:07.589Z,7.40
2018-12-20T09:37:07.638Z,4.40
2018-12-20T09:38:07.573Z,5.60
2018-12-20T09:39:07.582Z,4.80
2018-12-20T09:40:07.585Z,7.50
2018-12-20T09:41:07.538Z,6.90
2018-12-20T09:42:07.533Z,6.30
2018-12-20T09:43:07.534Z,4.90
2018-12-20T09:44:07.504Z,7.00
2018-12-20T09:45:07.499Z,5.20
2018-12-20T09:46:07.507Z,4.40
2018-12-20T09:47:11.654Z,4.10
2018-12-20T09:48:07.461Z,4.50
2018-12-20T09:49:07.451Z,4.50
2018-12-20T09:50:07.658Z,5.70
2018-12-20T09:51:07.432Z,3.60
2018-12-20T09:52:07.495Z,4.80
2018-12-20T09:53:07.408Z,3.70
2018-12-20T09:54:07.397Z,4.80
2018-12-20T09:55:07.405Z,4.00
2018-12-20T09:56:07.384Z,4.10
2018-12-20T09:57:07.362Z,3.70
2018-12-20T09:58:07.374Z,4.00
2018-12-20T09:59:07.341Z,2.60
2018-12-20T10:00:07.354Z,5.00
2018-12-20T10:01:07.319Z,4.40
2018-12-20T10:02:07.318Z,4.90
2018-12-20T10:03:07.304Z,4.30
2018-12-20T10:04:07.312Z,3.90
2018-12-20T10:05:07.294Z,3.00
2018-12-20T10:06:07.276Z,4.50
2018-12-20T10:07:07.259Z,3.10
2018-12-20T10:08:07.268Z,3.90
2018-12-20T10:09:08.323Z,3.40
2018-12-20T10:10:07.226Z,4.20
2018-12-20T10:11:07.208Z,3.10
2018-12-20T10:12:07.223Z,4.30
2018-12-20T10:13:07.190Z,3.90
2018-12-20T10:14:07.184Z,4.80
2018-12-20T10:15:07.246Z,3.40
2018-12-20T10:16:07.157Z,3.40
2018-12-20T10:17:07.147Z,2.50
2018-12-20T10:18:07.130Z,4.10
2018-12-20T10:19:07.137Z,3.70
2018-12-20T10:20:07.116Z,2.50
2018-12-20T10:21:07.125Z,3.90
2018-12-20T10:22:07.103Z,3.00
2018-12-20T10:23:07.085Z,5.20
2018-12-20T10:24:07.088Z,3.90
2018-12-20T10:25:07.069Z,5.10
2018-12-20T10:26:07.041Z,4.50
2018-12-20T10:27:07.041Z,4.50
2018-12-20T10:28:07.028Z,4.10
2018-12-20T10:29:07.043Z,4.60
2018-12-20T10:30:07.005Z,5.10
2018-12-20T10:31:06.988Z,4.00
2018-12-20T10:32:06.979Z,3.60
2018-12-20T10:33:06.972Z,3.40
2018-12-20T10:34:06.965Z,4.00
2018-12-20T10:35:06.969Z,4.70
2018-12-20T10:36:06.945Z,3.80
2018-12-20T10:37:06.925Z,2.70
2018-12-20T10:38:06.911Z,6.00
2018-12-20T10:39:06.919Z,3.60
2018-12-20T10:40:06.918Z,5.00
2018-12-20T10:41:06.958Z,3.10
2018-12-20T10:42:06.875Z,2.90
2018-12-20T10:43:06.944Z,3.10
2018-12-20T10:44:06.847Z,4.40
2018-12-20T10:45:06.839Z,3.90
2018-12-20T10:46:06.865Z,2.70
2018-12-20T10:47:06.861Z,3.60
2018-12-20T10:48:06.825Z,3.80
2018-12-20T10:49:06.818Z,4.50
2018-12-20T10:50:06.783Z,4.60
2018-12-20T10:51:06.772Z,4.20
2018-12-20T10:52:06.764Z,3.20
2018-12-20T10:53:06.761Z,3.70
2018-12-20T10:54:06.750Z,2.90
2018-12-20T10:55:06.758Z,3.40
2018-12-20T10:56:06.721Z,3.80
2018-12-20T10:57:06.709Z,3.30
2018-12-20T10:58:06.693Z,2.50
2018-12-20T10:59:06.705Z,3.10
2018-12-20T11:00:06.732Z,3.00
2018-12-20T11:01:06.718Z,2.90
2018-12-20T11:02:06.650Z,4.30
2018-12-20T11:03:06.644Z,3.10
2018-12-20T11:04:06.628Z,2.70
2018-12-20T11:05:06.622Z,2.90
2018-12-20T11:06:06.614Z,3.80
2018-12-20T11:07:06.648Z,5.20
2018-12-20T11:08:06.638Z,3.20
2018-12-20T11:09:06.574Z,2.20
2018-12-20T11:10:06.563Z,2.30
2018-12-20T11:11:06.560Z,2.80
2018-12-20T11:12:06.542Z,3.80
2018-12-20T11:13:06.558Z,2.70
2018-12-20T11:14:06.532Z,3.50
2018-12-20T11:15:06.511Z,2.80
2018-12-20T11:16:06.498Z,2.60
2018-12-20T11:17:06.592Z,3.00
2018-12-20T11:18:06.499Z,2.80
2018-12-20T11:19:06.470Z,2.60
2018-12-20T11:20:06.476Z,2.70
2018-12-20T11:21:06.444Z,2.60
2018-12-20T11:22:06.458Z,2.30
2018-12-20T11:23:06.437Z,4.20
2018-12-20T11:24:06.417Z,5.00
2018-12-20T11:25:06.404Z,3.40
2018-12-20T11:26:06.418Z,1.90
2018-12-20T11:27:06.382Z,2.70
2018-12-20T11:28:06.369Z,2.90
2018-12-20T11:29:06.362Z,3.00
2018-12-20T11:30:06.350Z,3.60
2018-12-20T11:31:06.338Z,1.90
2018-12-20T11:32:06.370Z,3.60
2018-12-20T11:33:06.316Z,3.60
2018-12-20T11:34:06.301Z,1.90
2018-12-20T11:35:06.291Z,3.10
2018-12-20T11:36:06.280Z,2.80
2018-12-20T11:37:06.274Z,2.40
2018-12-20T11:38:06.305Z,2.20
2018-12-20T11:39:08.514Z,2.80
2018-12-20T11:40:06.239Z,3.00
2018-12-20T11:41:06.238Z,2.80
2018-12-20T11:42:06.211Z,2.60
2018-12-20T11:43:06.229Z,2.10
2018-12-20T11:44:06.192Z,2.90
2018-12-20T11:45:06.199Z,3.10
2018-12-20T11:46:06.180Z,2.50
2018-12-20T11:47:06.159Z,2.90
2018-12-20T11:48:06.149Z,2.90
2018-12-20T11:49:06.168Z,2.00
2018-12-20T11:50:06.135Z,2.80
2018-12-20T11:51:06.121Z,3.80
2018-12-20T11:52:06.110Z,2.20
2018-12-20T11:53:06.198Z,4.00
2018-12-20T11:54:06.081Z,4.20
2018-12-20T11:55:06.103Z,3.50
2018-12-20T11:56:06.071Z,2.60
2018-12-20T11:57:06.052Z,2.60
2018-12-20T11:58:06.043Z,3.60
2018-12-20T11:59:06.038Z,3.60
2018-12-20T12:00:06.020Z,2.10
2018-12-20T12:01:06.053Z,2.50
2018-12-20T12:02:06.001Z,3.10
2018-12-20T12:03:05.993Z,1.80
2018-12-20T12:04:05.979Z,2.30
2018-12-20T12:05:05.967Z,3.70
2018-12-20T12:06:05.982Z,2.50
2018-12-20T12:07:05.988Z,2.80
2018-12-20T12:08:05.934Z,2.90
2018-12-20T12:09:05.922Z,2.70
2018-12-20T12:10:05.906Z,1.70
2018-12-20T12:11:05.922Z,3.10
2018-12-20T12:12:05.890Z,3.30
2018-12-20T12:13:05.880Z,2.30
2018-12-20T12:14:05.885Z,3.20
2018-12-20T12:15:05.858Z,2.80
2018-12-20T12:16:06.893Z,2.30
2018-12-20T12:17:05.848Z,3.10
2018-12-20T12:18:05.823Z,3.10
2018-12-20T12:19:05.814Z,1.70
2018-12-20T12:20:05.813Z,2.40
2018-12-20T12:21:05.792Z,3.50
2018-12-20T12:22:05.804Z,4.00
2018-12-20T12:23:05.766Z,2.30
2018-12-20T12:24:05.758Z,3.10
2018-12-20T12:25:05.748Z,3.00
2018-12-20T12:26:05.756Z,1.90
2018-12-20T12:27:05.737Z,3.50
2018-12-20T12:28:05.733Z,2.90
2018-12-20T12:29:05.705Z,3.10
2018-12-20T12:30:05.689Z,2.30
2018-12-20T12:31:05.704Z,3.30
2018-12-20T12:32:05.669Z,2.20
2018-12-20T12:33:05.719Z,2.50
2018-12-20T12:34:05.653Z,2.70
2018-12-20T12:35:05.635Z,2.40
2018-12-20T12:36:05.628Z,2.60
2018-12-20T12:37:05.636Z,1.90
2018-12-20T12:38:05.610Z,2.50
2018-12-20T12:39:05.603Z,2.30
2018-12-20T12:40:05.593Z,3.00
2018-12-20T12:41:05.640Z,2.70
2018-12-20T12:42:06.340Z,2.60
2018-12-20T12:43:05.548Z,3.10
2018-12-20T12:44:05.541Z,2.50
2018-12-20T12:45:05.546Z,2.30
2018-12-20T12:46:05.528Z,2.60
2018-12-20T12:47:05.539Z,2.00
2018-12-20T12:48:05.513Z,3.60
2018-12-20T12:49:05.620Z,3.10
2018-12-20T12:50:05.477Z,3.50
2018-12-20T12:51:05.467Z,4.10
2018-12-20T12:52:05.479Z,3.40
2018-12-20T12:53:05.443Z,4.60
2018-12-20T12:54:05.427Z,3.90
2018-12-20T12:55:05.442Z,2.70
2018-12-20T12:56:05.407Z,3.70
2018-12-20T12:57:05.399Z,2.80
2018-12-20T12:58:05.419Z,3.90
2018-12-20T12:59:05.383Z,4.30
2018-12-20T13:00:05.366Z,3.50
2018-12-20T13:01:05.353Z,3.10
2018-12-20T13:02:05.344Z,3.70